sensor_id;sensor_type;location;lat;lon;timestamp;pressure;altitude;pressure_sealevel;temperature;humidity
79415;BME280;68864;44.972;19.612;2023-11-18T00:06:51;100748.34;;;7.27;68.64
79415;BME280;68864;44.972;19.612;2023-11-18T00:09:19;100748.81;;;7.29;68.70
79415;BME280;68864;44.972;19.612;2023-11-18T00:11:48;100756.00;;;7.30;68.99
79415;BME280;68864;44.972;19.612;2023-11-18T00:14:14;100755.50;;;7.28;68.65
79415;BME280;68864;44.972;19.612;2023-11-18T00:16:41;100765.31;;;7.25;69.24
79415;BME280;68864;44.972;19.612;2023-11-18T00:19:08;100767.75;;;7.27;68.79
79415;BME280;68864;44.972;19.612;2023-11-18T00:21:35;100773.63;;;7.25;69.52
79415;BME280;68864;44.972;19.612;2023-11-18T00:24:04;100770.50;;;7.27;68.46
79415;BME280;68864;44.972;19.612;2023-11-18T00:26:33;100775.13;;;7.23;69.13
79415;BME280;68864;44.972;19.612;2023-11-18T00:29:00;100776.09;;;7.18;68.78
79415;BME280;68864;44.972;19.612;2023-11-18T00:31:27;100766.84;;;7.14;68.94
79415;BME280;68864;44.972;19.612;2023-11-18T00:33:55;100782.94;;;7.21;68.84
79415;BME280;68864;44.972;19.612;2023-11-18T00:36:22;100782.00;;;7.16;68.58
79415;BME280;68864;44.972;19.612;2023-11-18T00:38:49;100773.69;;;7.16;68.54
79415;BME280;68864;44.972;19.612;2023-11-18T00:41:17;100766.25;;;7.08;68.61
79415;BME280;68864;44.972;19.612;2023-11-18T00:43:44;100787.88;;;7.15;68.42
79415;BME280;68864;44.972;19.612;2023-11-18T00:46:11;100792.94;;;7.13;67.97
79415;BME280;68864;44.972;19.612;2023-11-18T00:48:37;100789.72;;;7.11;68.54
79415;BME280;68864;44.972;19.612;2023-11-18T00:51:05;100782.72;;;7.05;68.14
79415;BME280;68864;44.972;19.612;2023-11-18T00:53:32;100792.19;;;7.04;68.67
79415;BME280;68864;44.972;19.612;2023-11-18T00:55:59;100788.13;;;7.01;69.02
79415;BME280;68864;44.972;19.612;2023-11-18T00:58:28;100775.44;;;6.92;69.06
79415;BME280;68864;44.972;19.612;2023-11-18T01:00:55;100790.59;;;6.94;69.02
79415;BME280;68864;44.972;19.612;2023-11-18T01:03:22;100784.72;;;6.96;68.98
79415;BME280;68864;44.972;19.612;2023-11-18T01:05:48;100791.09;;;6.96;68.96
79415;BME280;68864;44.972;19.612;2023-11-18T01:08:15;100789.78;;;6.94;68.35
79415;BME280;68864;44.972;19.612;2023-11-18T01:10:42;100793.38;;;6.94;68.59
79415;BME280;68864;44.972;19.612;2023-11-18T01:13:09;100789.31;;;6.92;68.57
79415;BME280;68864;44.972;19.612;2023-11-18T01:15:37;100799.94;;;6.90;68.50
79415;BME280;68864;44.972;19.612;2023-11-18T01:18:06;100804.03;;;6.84;68.82
79415;BME280;68864;44.972;19.612;2023-11-18T01:20:33;100801.91;;;6.81;68.50
79415;BME280;68864;44.972;19.612;2023-11-18T01:23:00;100809.91;;;6.82;67.82
79415;BME280;68864;44.972;19.612;2023-11-18T01:25:27;100805.81;;;6.79;68.34
79415;BME280;68864;44.972;19.612;2023-11-18T01:27:54;100798.22;;;6.68;68.55
79415;BME280;68864;44.972;19.612;2023-11-18T01:30:21;100818.75;;;6.67;69.09
79415;BME280;68864;44.972;19.612;2023-11-18T01:32:50;100818.63;;;6.63;69.03
79415;BME280;68864;44.972;19.612;2023-11-18T01:35:17;100824.47;;;6.62;68.96
79415;BME280;68864;44.972;19.612;2023-11-18T01:37:44;100818.66;;;6.46;69.84
79415;BME280;68864;44.972;19.612;2023-11-18T01:40:13;100826.13;;;6.54;69.20
79415;BME280;68864;44.972;19.612;2023-11-18T01:42:42;100832.81;;;6.53;69.69
79415;BME280;68864;44.972;19.612;2023-11-18T01:45:11;100833.63;;;6.54;69.11
79415;BME280;68864;44.972;19.612;2023-11-18T01:47:40;100828.06;;;6.54;69.63
79415;BME280;68864;44.972;19.612;2023-11-18T01:50:10;100831.00;;;6.57;68.94
79415;BME280;68864;44.972;19.612;2023-11-18T01:52:38;100822.03;;;6.52;69.33
79415;BME280;68864;44.972;19.612;2023-11-18T01:55:07;100834.28;;;6.51;69.49
79415;BME280;68864;44.972;19.612;2023-11-18T01:57:35;100838.53;;;6.48;69.56
79415;BME280;68864;44.972;19.612;2023-11-18T02:00:03;100836.06;;;6.47;69.94
79415;BME280;68864;44.972;19.612;2023-11-18T02:02:31;100842.94;;;6.41;69.59
79415;BME280;68864;44.972;19.612;2023-11-18T02:05:00;100835.94;;;6.34;70.19
79415;BME280;68864;44.972;19.612;2023-11-18T02:07:28;100855.69;;;6.24;71.04
79415;BME280;68864;44.972;19.612;2023-11-18T02:09:56;100856.00;;;6.31;70.50
79415;BME280;68864;44.972;19.612;2023-11-18T02:12:29;100848.81;;;6.30;70.89
79415;BME280;68864;44.972;19.612;2023-11-18T02:15:00;100849.66;;;6.31;71.03
79415;BME280;68864;44.972;19.612;2023-11-18T02:17:37;100848.00;;;6.30;70.81
79415;BME280;68864;44.972;19.612;2023-11-18T02:20:07;100855.50;;;6.29;70.86
79415;BME280;68864;44.972;19.612;2023-11-18T02:22:42;100856.97;;;6.27;70.83
79415;BME280;68864;44.972;19.612;2023-11-18T02:25:10;100863.81;;;6.29;71.07
79415;BME280;68864;44.972;19.612;2023-11-18T02:27:43;100849.00;;;6.17;71.44
79415;BME280;68864;44.972;19.612;2023-11-18T02:30:11;100862.34;;;6.23;71.09
79415;BME280;68864;44.972;19.612;2023-11-18T02:32:46;100863.63;;;6.26;71.07
79415;BME280;68864;44.972;19.612;2023-11-18T02:35:23;100868.34;;;6.25;70.89
79415;BME280;68864;44.972;19.612;2023-11-18T02:37:54;100872.28;;;6.24;70.97
79415;BME280;68864;44.972;19.612;2023-11-18T02:40:26;100868.22;;;6.22;71.00
79415;BME280;68864;44.972;19.612;2023-11-18T02:42:57;100867.38;;;6.21;70.86
79415;BME280;68864;44.972;19.612;2023-11-18T02:45:26;100875.69;;;6.21;71.25
79415;BME280;68864;44.972;19.612;2023-11-18T02:47:53;100868.38;;;6.17;70.92
79415;BME280;68864;44.972;19.612;2023-11-18T02:50:23;100877.50;;;6.17;70.92
79415;BME280;68864;44.972;19.612;2023-11-18T02:52:49;100871.97;;;6.17;70.92
79415;BME280;68864;44.972;19.612;2023-11-18T02:55:16;100875.88;;;6.16;70.49
79415;BME280;68864;44.972;19.612;2023-11-18T02:57:43;100877.63;;;6.12;71.02
79415;BME280;68864;44.972;19.612;2023-11-18T03:00:13;100888.25;;;6.10;71.14
79415;BME280;68864;44.972;19.612;2023-11-18T03:02:47;100888.88;;;6.07;71.25
79415;BME280;68864;44.972;19.612;2023-11-18T03:05:15;100894.41;;;6.07;71.37
79415;BME280;68864;44.972;19.612;2023-11-18T03:07:43;100887.91;;;6.03;70.94
79415;BME280;68864;44.972;19.612;2023-11-18T03:10:12;100897.03;;;6.04;71.17
79415;BME280;68864;44.972;19.612;2023-11-18T03:12:46;100891.63;;;5.98;71.31
79415;BME280;68864;44.972;19.612;2023-11-18T03:15:14;100890.84;;;5.98;71.58
79415;BME280;68864;44.972;19.612;2023-11-18T03:17:44;100890.34;;;5.96;71.79
79415;BME280;68864;44.972;19.612;2023-11-18T03:20:11;100898.66;;;5.96;71.53
79415;BME280;68864;44.972;19.612;2023-11-18T03:22:42;100904.81;;;5.93;71.63
79415;BME280;68864;44.972;19.612;2023-11-18T03:25:09;100902.41;;;5.91;71.92
79415;BME280;68864;44.972;19.612;2023-11-18T03:27:36;100898.31;;;5.89;72.00
79415;BME280;68864;44.972;19.612;2023-11-18T03:30:03;100909.38;;;5.89;71.57
79415;BME280;68864;44.972;19.612;2023-11-18T03:32:33;100911.63;;;5.87;71.90
79415;BME280;68864;44.972;19.612;2023-11-18T03:35:00;100908.69;;;5.83;71.48
79415;BME280;68864;44.972;19.612;2023-11-18T03:37:27;100910.47;;;5.79;71.41
79415;BME280;68864;44.972;19.612;2023-11-18T03:39:57;100922.69;;;5.78;71.78
79415;BME280;68864;44.972;19.612;2023-11-18T03:42:23;100927.72;;;5.76;72.03
79415;BME280;68864;44.972;19.612;2023-11-18T03:44:50;100924.78;;;5.73;71.34
79415;BME280;68864;44.972;19.612;2023-11-18T03:47:17;100913.06;;;5.67;71.84
79415;BME280;68864;44.972;19.612;2023-11-18T03:49:45;100935.19;;;5.67;71.84
79415;BME280;68864;44.972;19.612;2023-11-18T03:52:12;100922.47;;;5.57;72.23
79415;BME280;68864;44.972;19.612;2023-11-18T03:54:39;100924.78;;;5.64;71.84
79415;BME280;68864;44.972;19.612;2023-11-18T03:57:05;100944.13;;;5.64;71.64
79415;BME280;68864;44.972;19.612;2023-11-18T03:59:32;100935.97;;;5.59;71.89
79415;BME280;68864;44.972;19.612;2023-11-18T04:01:59;100944.75;;;5.61;71.59
79415;BME280;68864;44.972;19.612;2023-11-18T04:04:26;100954.19;;;5.60;71.93
79415;BME280;68864;44.972;19.612;2023-11-18T04:06:55;100953.72;;;5.58;72.02
79415;BME280;68864;44.972;19.612;2023-11-18T04:09:22;100947.66;;;5.47;71.92
79415;BME280;68864;44.972;19.612;2023-11-18T04:11:49;100942.78;;;5.44;72.40
79415;BME280;68864;44.972;19.612;2023-11-18T04:14:15;100950.25;;;5.44;72.76
79415;BME280;68864;44.972;19.612;2023-11-18T04:16:45;100954.59;;;5.36;72.34
79415;BME280;68864;44.972;19.612;2023-11-18T04:19:12;100951.66;;;5.33;72.56
79415;BME280;68864;44.972;19.612;2023-11-18T04:21:39;100952.16;;;5.35;72.62
79415;BME280;68864;44.972;19.612;2023-11-18T04:24:08;100942.69;;;5.27;72.69
79415;BME280;68864;44.972;19.612;2023-11-18T04:26:35;100950.97;;;5.27;72.67
79415;BME280;68864;44.972;19.612;2023-11-18T04:29:02;100950.16;;;5.18;73.45
79415;BME280;68864;44.972;19.612;2023-11-18T04:31:29;100963.53;;;5.02;74.27
79415;BME280;68864;44.972;19.612;2023-11-18T04:33:56;100959.81;;;5.07;74.03
79415;BME280;68864;44.972;19.612;2023-11-18T04:36:23;100952.34;;;5.07;73.31
79415;BME280;68864;44.972;19.612;2023-11-18T04:38:51;100962.28;;;5.08;73.07
79415;BME280;68864;44.972;19.612;2023-11-18T04:41:20;100973.00;;;5.10;73.16
79415;BME280;68864;44.972;19.612;2023-11-18T04:43:48;100977.53;;;5.06;73.27
79415;BME280;68864;44.972;19.612;2023-11-18T04:46:15;100975.41;;;5.03;73.58
79415;BME280;68864;44.972;19.612;2023-11-18T04:48:42;100969.22;;;4.97;73.38
79415;BME280;68864;44.972;19.612;2023-11-18T04:51:09;100981.25;;;5.01;74.10
79415;BME280;68864;44.972;19.612;2023-11-18T04:53:37;100977.34;;;5.02;73.50
79415;BME280;68864;44.972;19.612;2023-11-18T04:56:05;100972.59;;;4.94;73.82
79415;BME280;68864;44.972;19.612;2023-11-18T04:58:37;100969.53;;;4.96;73.93
79415;BME280;68864;44.972;19.612;2023-11-18T05:01:05;100978.78;;;5.00;73.59
79415;BME280;68864;44.972;19.612;2023-11-18T05:03:32;100986.16;;;5.04;73.57
79415;BME280;68864;44.972;19.612;2023-11-18T05:05:58;100980.56;;;4.96;73.29
79415;BME280;68864;44.972;19.612;2023-11-18T05:08:25;100990.28;;;4.93;73.52
79415;BME280;68864;44.972;19.612;2023-11-18T05:10:52;100988.78;;;4.87;74.16
79415;BME280;68864;44.972;19.612;2023-11-18T05:13:19;100988.47;;;4.89;74.20
79415;BME280;68864;44.972;19.612;2023-11-18T05:15:48;100990.13;;;4.90;73.56
79415;BME280;68864;44.972;19.612;2023-11-18T05:18:19;100984.75;;;4.93;73.68
79415;BME280;68864;44.972;19.612;2023-11-18T05:20:46;100997.16;;;4.96;72.88
79415;BME280;68864;44.972;19.612;2023-11-18T05:23:13;100989.97;;;4.95;73.73
79415;BME280;68864;44.972;19.612;2023-11-18T05:25:41;101009.81;;;4.97;73.41
79415;BME280;68864;44.972;19.612;2023-11-18T05:28:08;101001.03;;;4.95;73.77
79415;BME280;68864;44.972;19.612;2023-11-18T05:30:35;101011.47;;;4.98;73.12
79415;BME280;68864;44.972;19.612;2023-11-18T05:33:04;101009.00;;;4.96;73.54
79415;BME280;68864;44.972;19.612;2023-11-18T05:35:31;101013.50;;;4.92;73.79
79415;BME280;68864;44.972;19.612;2023-11-18T05:37:58;101011.78;;;4.96;73.59
79415;BME280;68864;44.972;19.612;2023-11-18T05:40:25;101023.25;;;4.90;73.79
79415;BME280;68864;44.972;19.612;2023-11-18T05:42:53;101009.81;;;4.97;73.42
79415;BME280;68864;44.972;19.612;2023-11-18T05:45:20;101006.03;;;4.93;73.62
79415;BME280;68864;44.972;19.612;2023-11-18T05:47:57;101022.50;;;4.98;73.72
79415;BME280;68864;44.972;19.612;2023-11-18T05:50:25;101032.28;;;5.04;73.19
79415;BME280;68864;44.972;19.612;2023-11-18T05:52:53;101023.34;;;5.07;72.99
79415;BME280;68864;44.972;19.612;2023-11-18T05:55:20;101026.31;;;5.10;73.54
79415;BME280;68864;44.972;19.612;2023-11-18T05:57:47;101032.03;;;5.14;72.69
79415;BME280;68864;44.972;19.612;2023-11-18T06:00:15;101020.59;;;5.07;73.36
79415;BME280;68864;44.972;19.612;2023-11-18T06:02:47;101035.28;;;5.16;73.02
79415;BME280;68864;44.972;19.612;2023-11-18T06:05:14;101041.31;;;5.18;72.42
79415;BME280;68864;44.972;19.612;2023-11-18T06:07:42;101050.38;;;5.41;71.90
79415;BME280;68864;44.972;19.612;2023-11-18T06:10:09;101051.78;;;5.60;71.71
79415;BME280;68864;44.972;19.612;2023-11-18T06:12:37;101036.97;;;5.96;70.43
79415;BME280;68864;44.972;19.612;2023-11-18T06:15:06;101056.06;;;7.18;67.17
79415;BME280;68864;44.972;19.612;2023-11-18T06:17:39;101043.16;;;9.88;58.35
79415;BME280;68864;44.972;19.612;2023-11-18T06:20:08;101040.47;;;12.46;49.94
79415;BME280;68864;44.972;19.612;2023-11-18T06:22:36;101027.81;;;14.20;45.23
79415;BME280;68864;44.972;19.612;2023-11-18T06:25:05;101020.38;;;15.58;40.96
79415;BME280;68864;44.972;19.612;2023-11-18T06:27:33;101012.97;;;17.11;39.04
79415;BME280;68864;44.972;19.612;2023-11-18T06:29:59;101014.69;;;18.60;35.11
79415;BME280;68864;44.972;19.612;2023-11-18T06:32:26;100995.31;;;19.50;32.43
79415;BME280;68864;44.972;19.612;2023-11-18T06:34:53;101007.63;;;20.25;32.08
79415;BME280;68864;44.972;19.612;2023-11-18T06:37:20;101032.25;;;19.11;34.43
79415;BME280;68864;44.972;19.612;2023-11-18T06:39:48;100999.66;;;21.49;30.61
79415;BME280;68864;44.972;19.612;2023-11-18T06:42:17;101000.22;;;23.19;27.41
79415;BME280;68864;44.972;19.612;2023-11-18T06:44:43;100993.38;;;24.17;26.47
79415;BME280;68864;44.972;19.612;2023-11-18T06:47:10;100994.06;;;25.24;24.67
79415;BME280;68864;44.972;19.612;2023-11-18T06:49:37;100975.56;;;25.80;22.35
79415;BME280;68864;44.972;19.612;2023-11-18T06:52:06;100968.50;;;26.66;22.86
79415;BME280;68864;44.972;19.612;2023-11-18T06:54:35;100965.19;;;27.51;21.32
79415;BME280;68864;44.972;19.612;2023-11-18T06:57:03;100955.88;;;28.27;20.53
79415;BME280;68864;44.972;19.612;2023-11-18T06:59:31;100965.91;;;29.46;19.82
79415;BME280;68864;44.972;19.612;2023-11-18T07:01:58;100957.28;;;29.79;18.67
79415;BME280;68864;44.972;19.612;2023-11-18T07:04:25;100955.25;;;30.27;18.03
79415;BME280;68864;44.972;19.612;2023-11-18T07:06:52;100948.06;;;31.14;17.78
79415;BME280;68864;44.972;19.612;2023-11-18T07:09:19;100940.22;;;31.30;16.83
79415;BME280;68864;44.972;19.612;2023-11-18T07:11:47;100934.38;;;31.94;15.96
79415;BME280;68864;44.972;19.612;2023-11-18T07:14:14;100951.59;;;32.44;14.38
79415;BME280;68864;44.972;19.612;2023-11-18T07:16:42;100966.81;;;32.90;14.84
79415;BME280;68864;44.972;19.612;2023-11-18T07:19:09;100970.59;;;33.28;15.26
79415;BME280;68864;44.972;19.612;2023-11-18T07:21:42;100989.13;;;33.73;14.36
79415;BME280;68864;44.972;19.612;2023-11-18T07:24:09;101016.38;;;34.46;14.27
79415;BME280;68864;44.972;19.612;2023-11-18T07:26:36;101016.41;;;35.27;13.34
79415;BME280;68864;44.972;19.612;2023-11-18T07:29:03;101022.47;;;35.68;13.15
79415;BME280;68864;44.972;19.612;2023-11-18T07:31:33;101025.84;;;36.11;12.47
79415;BME280;68864;44.972;19.612;2023-11-18T07:34:03;101013.16;;;36.26;11.80
79415;BME280;68864;44.972;19.612;2023-11-18T07:36:31;101025.44;;;36.59;12.32
79415;BME280;68864;44.972;19.612;2023-11-18T07:38:57;101027.06;;;37.07;11.22
79415;BME280;68864;44.972;19.612;2023-11-18T07:41:26;101034.50;;;37.38;12.04
79415;BME280;68864;44.972;19.612;2023-11-18T07:43:53;101040.75;;;37.53;11.42
79415;BME280;68864;44.972;19.612;2023-11-18T07:46:21;101034.91;;;37.89;11.30
79415;BME280;68864;44.972;19.612;2023-11-18T07:48:48;101045.00;;;38.61;11.01
79415;BME280;68864;44.972;19.612;2023-11-18T07:51:18;101056.13;;;38.81;10.31
79415;BME280;68864;44.972;19.612;2023-11-18T07:53:46;101059.72;;;38.49;10.69
79415;BME280;68864;44.972;19.612;2023-11-18T07:56:13;101080.03;;;38.98;10.08
79415;BME280;68864;44.972;19.612;2023-11-18T07:58:42;101085.41;;;39.82;9.75
79415;BME280;68864;44.972;19.612;2023-11-18T08:01:11;101092.22;;;39.53;9.50
79415;BME280;68864;44.972;19.612;2023-11-18T08:03:38;101086.44;;;39.98;9.39
79415;BME280;68864;44.972;19.612;2023-11-18T08:06:07;101077.78;;;39.92;9.50
79415;BME280;68864;44.972;19.612;2023-11-18T08:08:35;101079.16;;;40.04;9.79
79415;BME280;68864;44.972;19.612;2023-11-18T08:11:03;101070.22;;;40.29;9.25
79415;BME280;68864;44.972;19.612;2023-11-18T08:13:31;101065.38;;;40.31;9.43
79415;BME280;68864;44.972;19.612;2023-11-18T08:15:58;101042.75;;;40.05;8.66
79415;BME280;68864;44.972;19.612;2023-11-18T08:18:24;101054.88;;;39.14;9.22
79415;BME280;68864;44.972;19.612;2023-11-18T08:20:53;101067.94;;;40.08;9.19
79415;BME280;68864;44.972;19.612;2023-11-18T08:23:20;101065.38;;;40.31;9.14
79415;BME280;68864;44.972;19.612;2023-11-18T08:25:48;101071.19;;;40.18;8.84
79415;BME280;68864;44.972;19.612;2023-11-18T08:28:16;101070.31;;;40.63;8.70
79415;BME280;68864;44.972;19.612;2023-11-18T08:30:43;101048.53;;;40.24;9.22
79415;BME280;68864;44.972;19.612;2023-11-18T08:33:10;101061.09;;;40.59;8.25
79415;BME280;68864;44.972;19.612;2023-11-18T08:35:37;101074.22;;;39.99;8.79
79415;BME280;68864;44.972;19.612;2023-11-18T08:38:05;101077.19;;;40.26;8.88
79415;BME280;68864;44.972;19.612;2023-11-18T08:40:32;101092.06;;;39.96;8.78
79415;BME280;68864;44.972;19.612;2023-11-18T08:43:01;101102.50;;;40.04;8.73
79415;BME280;68864;44.972;19.612;2023-11-18T08:45:30;101115.47;;;40.09;8.98
79415;BME280;68864;44.972;19.612;2023-11-18T08:48:00;101115.47;;;36.71;11.07
79415;BME280;68864;44.972;19.612;2023-11-18T08:50:27;101117.88;;;39.41;9.33
79415;BME280;68864;44.972;19.612;2023-11-18T08:52:56;101115.28;;;39.88;9.07
79415;BME280;68864;44.972;19.612;2023-11-18T08:55:24;101125.91;;;40.18;8.39
79415;BME280;68864;44.972;19.612;2023-11-18T08:58:06;101130.50;;;40.13;8.42
79415;BME280;68864;44.972;19.612;2023-11-18T09:00:42;101143.25;;;39.97;8.95
79415;BME280;68864;44.972;19.612;2023-11-18T09:03:14;101153.16;;;40.26;8.76
79415;BME280;68864;44.972;19.612;2023-11-18T09:05:50;101155.47;;;40.72;8.79
79415;BME280;68864;44.972;19.612;2023-11-18T09:08:27;101166.66;;;40.29;8.60
79415;BME280;68864;44.972;19.612;2023-11-18T09:10:55;101166.50;;;39.70;9.25
79415;BME280;68864;44.972;19.612;2023-11-18T09:13:25;101169.03;;;39.80;8.49
79415;BME280;68864;44.972;19.612;2023-11-18T09:15:55;101164.63;;;39.54;8.81
79415;BME280;68864;44.972;19.612;2023-11-18T09:18:23;101172.81;;;39.75;8.87
79415;BME280;68864;44.972;19.612;2023-11-18T09:20:50;101204.38;;;39.95;8.90
79415;BME280;68864;44.972;19.612;2023-11-18T09:23:18;101233.34;;;39.55;9.33
79415;BME280;68864;44.972;19.612;2023-11-18T09:25:46;101310.63;;;39.49;9.17
79415;BME280;68864;44.972;19.612;2023-11-18T09:28:14;101373.44;;;39.55;8.86
79415;BME280;68864;44.972;19.612;2023-11-18T09:30:43;101347.03;;;38.88;8.66
79415;BME280;68864;44.972;19.612;2023-11-18T09:33:17;101265.75;;;39.09;8.86
79415;BME280;68864;44.972;19.612;2023-11-18T09:35:53;101180.53;;;39.16;9.44
79415;BME280;68864;44.972;19.612;2023-11-18T09:38:24;101149.63;;;39.07;8.83
79415;BME280;68864;44.972;19.612;2023-11-18T09:40:53;101124.09;;;37.86;9.50
79415;BME280;68864;44.972;19.612;2023-11-18T09:43:20;101124.72;;;37.73;9.64
79415;BME280;68864;44.972;19.612;2023-11-18T09:45:50;101102.53;;;34.62;11.42
79415;BME280;68864;44.972;19.612;2023-11-18T09:48:20;101109.09;;;31.86;14.13
79415;BME280;68864;44.972;19.612;2023-11-18T09:50:51;101108.31;;;29.11;16.16
79415;BME280;68864;44.972;19.612;2023-11-18T09:53:19;101106.34;;;26.61;19.00
79415;BME280;68864;44.972;19.612;2023-11-18T09:55:50;101093.16;;;25.37;19.72
79415;BME280;68864;44.972;19.612;2023-11-18T09:58:21;101094.94;;;26.95;18.19
79415;BME280;68864;44.972;19.612;2023-11-18T10:00:54;101080.03;;;27.22;17.87
79415;BME280;68864;44.972;19.612;2023-11-18T10:03:22;101094.25;;;28.76;16.12
79415;BME280;68864;44.972;19.612;2023-11-18T10:05:48;101083.03;;;29.60;15.66
79415;BME280;68864;44.972;19.612;2023-11-18T10:08:18;101089.06;;;30.70;14.41
79415;BME280;68864;44.972;19.612;2023-11-18T10:10:51;101082.72;;;31.05;14.82
79415;BME280;68864;44.972;19.612;2023-11-18T10:13:31;101069.06;;;31.44;13.96
79415;BME280;68864;44.972;19.612;2023-11-18T10:16:01;101074.31;;;30.92;14.88
79415;BME280;68864;44.972;19.612;2023-11-18T10:18:30;101083.34;;;31.09;14.63
79415;BME280;68864;44.972;19.612;2023-11-18T10:21:00;101069.63;;;30.80;14.89
79415;BME280;68864;44.972;19.612;2023-11-18T10:23:29;101061.31;;;30.11;15.24
79415;BME280;68864;44.972;19.612;2023-11-18T10:25:59;101070.63;;;28.72;16.08
79415;BME280;68864;44.972;19.612;2023-11-18T10:28:29;101066.81;;;25.45;19.32
79415;BME280;68864;44.972;19.612;2023-11-18T10:30:58;101069.22;;;23.95;21.58
79415;BME280;68864;44.972;19.612;2023-11-18T10:33:30;101069.56;;;22.63;22.76
79415;BME280;68864;44.972;19.612;2023-11-18T10:35:58;101078.28;;;21.14;24.42
79415;BME280;68864;44.972;19.612;2023-11-18T10:38:29;101069.75;;;20.43;25.50
79415;BME280;68864;44.972;19.612;2023-11-18T10:40:58;101076.03;;;19.58;26.28
79415;BME280;68864;44.972;19.612;2023-11-18T10:43:26;101083.91;;;19.11;27.72
79415;BME280;68864;44.972;19.612;2023-11-18T10:46:04;101062.28;;;18.09;28.94
79415;BME280;68864;44.972;19.612;2023-11-18T10:48:39;101081.25;;;18.01;29.43
79415;BME280;68864;44.972;19.612;2023-11-18T10:51:09;101070.34;;;17.85;29.45
79415;BME280;68864;44.972;19.612;2023-11-18T10:53:39;101074.00;;;16.85;31.07
79415;BME280;68864;44.972;19.612;2023-11-18T10:56:16;101075.63;;;16.90;31.52
79415;BME280;68864;44.972;19.612;2023-11-18T10:58:45;101071.81;;;16.57;31.39
79415;BME280;68864;44.972;19.612;2023-11-18T11:01:11;101078.19;;;16.51;31.50
79415;BME280;68864;44.972;19.612;2023-11-18T11:03:52;101085.66;;;16.29;32.80
79415;BME280;68864;44.972;19.612;2023-11-18T11:06:21;101072.88;;;16.35;32.27
79415;BME280;68864;44.972;19.612;2023-11-18T11:08:49;101087.22;;;16.23;32.40
79415;BME280;68864;44.972;19.612;2023-11-18T11:11:19;101088.69;;;16.06;33.40
79415;BME280;68864;44.972;19.612;2023-11-18T11:13:49;101091.97;;;15.71;33.29
79415;BME280;68864;44.972;19.612;2023-11-18T11:16:19;101077.63;;;15.46;33.57
79415;BME280;68864;44.972;19.612;2023-11-18T11:18:55;101090.97;;;15.20;33.95
79415;BME280;68864;44.972;19.612;2023-11-18T11:21:25;101087.72;;;15.51;33.25
79415;BME280;68864;44.972;19.612;2023-11-18T11:23:55;101078.94;;;15.23;33.89
79415;BME280;68864;44.972;19.612;2023-11-18T11:26:41;101086.81;;;15.10;34.78
79415;BME280;68864;44.972;19.612;2023-11-18T11:29:24;101084.78;;;15.07;34.86
79415;BME280;68864;44.972;19.612;2023-11-18T11:32:00;101079.34;;;14.91;34.54
79415;BME280;68864;44.972;19.612;2023-11-18T11:34:31;101086.25;;;14.97;34.82
79415;BME280;68864;44.972;19.612;2023-11-18T11:37:00;101085.34;;;14.90;35.05
79415;BME280;68864;44.972;19.612;2023-11-18T11:39:27;101080.03;;;14.81;35.48
79415;BME280;68864;44.972;19.612;2023-11-18T11:41:56;101085.44;;;14.97;35.55
79415;BME280;68864;44.972;19.612;2023-11-18T11:44:24;101086.16;;;14.90;36.06
79415;BME280;68864;44.972;19.612;2023-11-18T11:46:56;101097.34;;;14.87;35.61
79415;BME280;68864;44.972;19.612;2023-11-18T11:49:26;101110.00;;;14.74;36.04
79415;BME280;68864;44.972;19.612;2023-11-18T11:52:02;101102.16;;;14.60;36.35
79415;BME280;68864;44.972;19.612;2023-11-18T11:54:34;101109.56;;;14.45;36.79
79415;BME280;68864;44.972;19.612;2023-11-18T11:57:03;101104.00;;;14.03;36.85
79415;BME280;68864;44.972;19.612;2023-11-18T12:00:05;101113.06;;;13.93;36.85
79415;BME280;68864;44.972;19.612;2023-11-18T12:02:48;101093.69;;;13.84;37.43
79415;BME280;68864;44.972;19.612;2023-11-18T12:05:16;101098.72;;;13.75;37.64
79415;BME280;68864;44.972;19.612;2023-11-18T12:07:47;101107.88;;;13.72;38.38
79415;BME280;68864;44.972;19.612;2023-11-18T12:10:14;101130.50;;;13.64;38.26
79415;BME280;68864;44.972;19.612;2023-11-18T12:12:46;101117.19;;;13.57;38.29
79415;BME280;68864;44.972;19.612;2023-11-18T12:15:13;101125.81;;;13.48;38.17
79415;BME280;68864;44.972;19.612;2023-11-18T12:18:09;101136.13;;;13.25;37.45
79415;BME280;68864;44.972;19.612;2023-11-18T12:20:39;101124.63;;;13.30;37.39
79415;BME280;68864;44.972;19.612;2023-11-18T12:23:09;101132.31;;;13.33;37.20
79415;BME280;68864;44.972;19.612;2023-11-18T12:25:40;101135.47;;;13.32;37.29
79415;BME280;68864;44.972;19.612;2023-11-18T12:28:11;101128.34;;;13.15;37.53
79415;BME280;68864;44.972;19.612;2023-11-18T12:30:44;101128.88;;;13.05;37.66
79415;BME280;68864;44.972;19.612;2023-11-18T12:33:23;101130.78;;;12.82;38.58
79415;BME280;68864;44.972;19.612;2023-11-18T12:42:20;101127.06;;;12.27;39.75
79415;BME280;68864;44.972;19.612;2023-11-18T12:45:24;101125.25;;;12.19;39.63
79415;BME280;68864;44.972;19.612;2023-11-18T12:48:04;101123.09;;;12.12;39.53
79415;BME280;68864;44.972;19.612;2023-11-18T12:50:38;101132.94;;;12.22;39.89
79415;BME280;68864;44.972;19.612;2023-11-18T12:53:05;101137.44;;;12.26;42.35
79415;BME280;68864;44.972;19.612;2023-11-18T12:55:32;101142.03;;;12.19;41.51
79415;BME280;68864;44.972;19.612;2023-11-18T12:58:01;101148.88;;;12.21;40.45
79415;BME280;68864;44.972;19.612;2023-11-18T13:00:31;101146.97;;;12.25;40.96
79415;BME280;68864;44.972;19.612;2023-11-18T13:02:59;101137.19;;;12.16;42.15
79415;BME280;68864;44.972;19.612;2023-11-18T13:05:26;101156.28;;;12.14;42.06
79415;BME280;68864;44.972;19.612;2023-11-18T13:07:55;101151.22;;;12.19;42.13